createdAt,value
2023-04-13T00:01:46.006Z,22.32
2023-04-13T00:04:14.524Z,22.31
2023-04-13T00:06:42.846Z,22.31
2023-04-13T00:09:11.201Z,21.74
2023-04-13T00:11:40.210Z,21.84
2023-04-13T00:14:08.500Z,22.05
2023-04-13T00:16:38.175Z,22.03
2023-04-13T00:19:06.786Z,22.08
2023-04-13T00:21:35.066Z,21.93
2023-04-13T00:24:08.459Z,22.12
2023-04-13T00:26:38.762Z,22.08
2023-04-13T00:29:07.578Z,22.05
2023-04-13T00:31:35.712Z,22.08
2023-04-13T00:34:04.574Z,22.09
2023-04-13T00:36:33.173Z,22.19
2023-04-13T00:39:01.118Z,22.22
2023-04-13T00:41:32.944Z,22.26
2023-04-13T00:44:00.995Z,22.30
2023-04-13T00:46:29.730Z,22.32
2023-04-13T00:49:03.117Z,22.35
2023-04-13T00:51:33.142Z,22.27
2023-04-13T00:54:01.061Z,22.27
2023-04-13T00:56:31.690Z,22.29
2023-04-13T00:58:59.687Z,22.21
2023-04-13T01:01:30.364Z,22.04
2023-04-13T01:03:59.517Z,22.02
2023-04-13T01:06:31.978Z,22.06
2023-04-13T01:09:08.707Z,21.94
2023-04-13T01:11:39.702Z,21.66
2023-04-13T01:14:13.212Z,21.58
2023-04-13T01:16:50.399Z,21.52
2023-04-13T01:19:30.983Z,21.34
2023-04-13T01:21:59.749Z,21.23
2023-04-13T01:24:31.101Z,21.49
2023-04-13T01:27:20.682Z,21.60
2023-04-13T01:29:49.489Z,21.62
2023-04-13T01:32:17.885Z,21.73
2023-04-13T01:34:46.525Z,21.76
2023-04-13T01:37:14.779Z,21.75
2023-04-13T01:39:43.255Z,21.85
2023-04-13T01:42:24.216Z,22.03
2023-04-13T01:44:54.475Z,22.16
2023-04-13T01:47:22.825Z,22.26
2023-04-13T01:50:09.397Z,22.15
2023-04-13T01:52:49.395Z,21.85
2023-04-13T01:55:18.222Z,21.79
2023-04-13T01:57:54.934Z,21.89
2023-04-13T02:00:31.843Z,21.82
2023-04-13T02:03:00.684Z,21.58
2023-04-13T02:05:29.544Z,21.52
2023-04-13T02:07:57.935Z,21.38
2023-04-13T02:10:26.680Z,21.35
2023-04-13T02:12:55.525Z,21.42
2023-04-13T02:15:24.187Z,21.52
2023-04-13T02:17:53.225Z,21.48
2023-04-13T02:20:21.763Z,21.44
2023-04-13T02:22:55.149Z,21.64
2023-04-13T02:25:28.186Z,21.79
2023-04-13T02:27:57.225Z,21.90
2023-04-13T02:30:26.048Z,22.00
2023-04-13T02:33:00.549Z,21.95
2023-04-13T02:35:29.002Z,22.36
2023-04-13T02:37:58.216Z,22.47
2023-04-13T02:40:28.222Z,22.46
2023-04-13T02:43:00.017Z,22.38
2023-04-13T02:45:29.505Z,22.26
2023-04-13T02:48:06.334Z,22.01
2023-04-13T02:50:35.859Z,22.02
2023-04-13T02:53:08.955Z,22.00
2023-04-13T02:55:43.358Z,21.93
2023-04-13T02:58:13.589Z,21.84
2023-04-13T03:00:42.542Z,21.84
2023-04-13T03:03:20.465Z,21.94
2023-04-13T03:05:51.470Z,22.06
2023-04-13T03:08:23.852Z,22.11
2023-04-13T03:11:00.878Z,22.19
2023-04-13T03:13:30.807Z,22.18
2023-04-13T03:16:00.537Z,22.16
2023-04-13T03:18:29.204Z,22.22
2023-04-13T03:20:57.143Z,22.50
2023-04-13T03:23:28.170Z,22.78
2023-04-13T03:25:58.655Z,22.73
2023-04-13T03:28:27.294Z,22.39
2023-04-13T03:30:55.628Z,22.45
2023-04-13T03:33:24.990Z,22.35
2023-04-13T03:35:53.090Z,22.30
2023-04-13T03:38:28.007Z,22.19
2023-04-13T03:40:56.295Z,22.22
2023-04-13T03:43:24.989Z,21.84
2023-04-13T03:46:01.810Z,21.80
2023-04-13T03:48:30.140Z,21.99
2023-04-13T03:50:58.614Z,22.09
2023-04-13T03:53:31.279Z,22.16
2023-04-13T03:55:59.817Z,22.17
2023-04-13T03:58:28.947Z,21.89
2023-04-13T04:00:57.849Z,21.85
2023-04-13T04:03:36.021Z,21.74
2023-04-13T04:06:08.463Z,21.82
2023-04-13T04:08:39.976Z,21.92
2023-04-13T04:11:13.728Z,21.98
2023-04-13T04:13:41.892Z,21.98
2023-04-13T04:16:19.738Z,22.11
2023-04-13T04:18:53.295Z,22.22
2023-04-13T04:21:21.862Z,22.31
2023-04-13T04:23:53.007Z,22.36
2023-04-13T04:26:25.803Z,22.57
2023-04-13T04:29:02.805Z,22.80
2023-04-13T04:31:36.672Z,22.76
2023-04-13T04:34:06.791Z,22.73
2023-04-13T04:36:36.436Z,22.83
2023-04-13T04:39:06.339Z,22.68
2023-04-13T04:41:39.831Z,22.62
2023-04-13T04:44:09.115Z,22.61
2023-04-13T04:46:42.097Z,22.66
2023-04-13T04:49:13.243Z,22.64
2023-04-13T04:51:41.894Z,22.63
2023-04-13T04:54:10.615Z,22.81
2023-04-13T04:56:38.932Z,22.84
2023-04-13T04:59:07.156Z,22.73
2023-04-13T05:01:52.444Z,22.93
2023-04-13T05:04:20.710Z,23.05
2023-04-13T05:06:49.290Z,23.35
2023-04-13T05:09:22.862Z,23.35
2023-04-13T05:11:56.416Z,23.52
2023-04-13T05:14:24.380Z,23.77
2023-04-13T05:16:54.632Z,24.07
2023-04-13T05:19:29.744Z,24.15
2023-04-13T05:22:13.079Z,23.71
2023-04-13T05:24:46.478Z,24.12
2023-04-13T05:27:16.076Z,24.24
2023-04-13T05:29:47.894Z,24.27
2023-04-13T05:32:20.987Z,24.26
2023-04-13T05:34:51.096Z,24.39
2023-04-13T05:37:23.748Z,24.61
2023-04-13T05:39:52.153Z,24.63
2023-04-13T05:42:24.130Z,24.62
2023-04-13T05:44:53.074Z,24.60
2023-04-13T05:47:22.505Z,24.47
2023-04-13T05:49:52.357Z,24.50
2023-04-13T05:52:22.096Z,24.72
2023-04-13T05:54:50.417Z,24.66
2023-04-13T05:57:23.086Z,24.66
2023-04-13T05:59:53.453Z,24.65
2023-04-13T06:02:26.564Z,24.59
2023-04-13T06:04:56.521Z,24.67
2023-04-13T06:07:26.071Z,24.82
2023-04-13T06:09:54.417Z,24.68
2023-04-13T06:12:27.994Z,24.62
2023-04-13T06:14:56.010Z,24.59
2023-04-13T06:17:24.669Z,24.67
2023-04-13T06:19:54.531Z,24.70
2023-04-13T06:22:22.829Z,24.65
2023-04-13T06:24:51.782Z,24.68
2023-04-13T06:27:22.686Z,24.72
2023-04-13T06:29:52.444Z,24.77
2023-04-13T06:32:21.097Z,24.76
2023-04-13T06:34:49.321Z,24.77
2023-04-13T06:37:19.315Z,24.94
2023-04-13T06:39:49.890Z,25.05
2023-04-13T06:42:21.268Z,25.10
2023-04-13T06:45:23.525Z,25.09
2023-04-13T06:47:52.578Z,25.22
2023-04-13T06:50:21.012Z,25.35
2023-04-13T06:52:49.201Z,25.31
2023-04-13T06:55:18.073Z,25.49
2023-04-13T06:57:46.942Z,25.71
2023-04-13T07:00:28.917Z,25.90
2023-04-13T07:02:58.812Z,25.89
2023-04-13T07:05:27.087Z,26.04
2023-04-13T07:07:58.433Z,26.18
2023-04-13T07:10:27.467Z,26.16
2023-04-13T07:12:56.369Z,26.30
2023-04-13T07:15:25.696Z,26.53
2023-04-13T07:17:56.018Z,26.62
2023-04-13T07:20:24.182Z,26.36
2023-04-13T07:22:52.972Z,26.35
2023-04-13T07:25:21.850Z,26.49
2023-04-13T07:27:51.025Z,26.67
2023-04-13T07:30:19.483Z,26.87
2023-04-13T07:32:48.972Z,27.09
2023-04-13T07:35:17.025Z,27.08
2023-04-13T07:37:46.743Z,27.03
2023-04-13T07:40:16.059Z,27.27
2023-04-13T07:42:47.288Z,27.57
2023-04-13T07:45:15.955Z,27.64
2023-04-13T07:47:47.266Z,27.85
2023-04-13T07:50:16.665Z,28.01
2023-04-13T07:52:45.103Z,28.02
2023-04-13T07:55:13.532Z,28.04
2023-04-13T07:57:50.051Z,28.25
2023-04-13T08:00:20.685Z,28.13
2023-04-13T08:02:49.260Z,28.00
2023-04-13T08:05:24.081Z,27.69
2023-04-13T08:07:53.801Z,27.41
2023-04-13T08:10:22.422Z,27.18
2023-04-13T08:12:50.375Z,27.24
2023-04-13T08:15:19.804Z,27.24
2023-04-13T08:17:48.907Z,27.17
2023-04-13T08:20:17.075Z,27.14
2023-04-13T08:22:47.803Z,27.44
2023-04-13T08:25:17.569Z,27.40
2023-04-13T08:27:45.838Z,27.29
2023-04-13T08:30:14.858Z,27.30
2023-04-13T08:33:01.778Z,27.09
2023-04-13T08:35:30.304Z,26.97
2023-04-13T08:38:02.698Z,26.97
2023-04-13T08:40:37.529Z,27.17
2023-04-13T08:43:07.359Z,27.47
2023-04-13T08:45:41.682Z,27.49
2023-04-13T08:48:12.241Z,27.58
2023-04-13T08:50:40.943Z,27.60
2023-04-13T08:53:10.390Z,27.39
2023-04-13T08:55:43.568Z,27.34
2023-04-13T08:58:12.966Z,27.37
2023-04-13T09:00:44.403Z,27.38
2023-04-13T09:03:14.613Z,27.54
2023-04-13T09:05:46.469Z,27.40
2023-04-13T09:08:17.069Z,27.28
2023-04-13T09:10:48.316Z,27.30
2023-04-13T09:13:16.770Z,27.34
2023-04-13T09:15:47.472Z,27.58
2023-04-13T09:18:51.583Z,27.68
2023-04-13T09:24:02.702Z,24.52
2023-04-13T09:26:48.196Z,26.38
2023-04-13T09:29:21.900Z,26.88
2023-04-13T09:31:50.744Z,27.12
2023-04-13T09:34:28.752Z,27.31
2023-04-13T09:37:01.024Z,27.39
2023-04-13T09:39:30.227Z,27.39
2023-04-13T09:41:58.630Z,27.43
2023-04-13T09:44:36.191Z,27.45
2023-04-13T09:47:06.984Z,27.59
2023-04-13T09:49:42.311Z,27.95
2023-04-13T09:52:23.380Z,28.16
2023-04-13T09:54:57.221Z,28.32
2023-04-13T09:57:30.791Z,28.32
2023-04-13T10:00:07.172Z,27.94
2023-04-13T10:02:43.007Z,27.61
2023-04-13T10:05:12.555Z,27.23
2023-04-13T10:07:45.535Z,26.75
2023-04-13T10:10:15.436Z,26.55
2023-04-13T10:12:49.059Z,26.45
2023-04-13T10:15:22.766Z,26.40
2023-04-13T10:18:06.975Z,26.20
2023-04-13T10:20:36.604Z,26.12
2023-04-13T10:23:04.651Z,26.18
2023-04-13T10:25:34.589Z,26.09
2023-04-13T10:28:04.794Z,25.92
2023-04-13T10:30:33.289Z,25.92
2023-04-13T10:33:09.440Z,26.30
2023-04-13T10:35:38.198Z,26.09
2023-04-13T10:38:09.230Z,26.01
2023-04-13T10:40:47.884Z,25.92
2023-04-13T10:43:29.074Z,25.93
2023-04-13T10:46:10.846Z,25.99
2023-04-13T10:48:42.264Z,25.86
2023-04-13T10:51:13.170Z,25.68
2023-04-13T10:53:42.307Z,25.61
2023-04-13T10:56:17.147Z,25.92
2023-04-13T10:58:51.994Z,25.82
2023-04-13T11:01:20.843Z,25.78
2023-04-13T11:04:03.168Z,25.66
2023-04-13T11:06:40.069Z,25.46
2023-04-13T11:09:13.099Z,25.63
2023-04-13T11:11:42.668Z,25.77
2023-04-13T11:14:21.415Z,25.72
2023-04-13T11:16:49.558Z,25.79
2023-04-13T11:19:19.055Z,26.09
2023-04-13T11:21:54.090Z,26.30
2023-04-13T11:24:29.549Z,26.38
2023-04-13T11:26:57.820Z,26.25
2023-04-13T11:29:27.412Z,26.31
2023-04-13T11:31:59.238Z,26.35
2023-04-13T11:34:30.664Z,26.37
2023-04-13T11:37:00.647Z,26.44
2023-04-13T11:39:29.372Z,26.37
2023-04-13T11:41:57.444Z,26.74
2023-04-13T11:44:26.215Z,26.77
2023-04-13T11:46:54.592Z,26.84
2023-04-13T11:49:23.087Z,26.77
2023-04-13T11:51:52.173Z,26.28
2023-04-13T11:54:20.268Z,26.24
2023-04-13T11:56:49.148Z,26.25
2023-04-13T11:59:24.851Z,26.33
2023-04-13T12:01:58.284Z,26.42
2023-04-13T12:04:39.086Z,26.61
2023-04-13T12:07:12.656Z,26.88
2023-04-13T12:15:15.471Z,26.20
2023-04-13T12:17:59.942Z,26.18
2023-04-13T12:20:43.971Z,26.05
2023-04-13T12:23:22.305Z,26.13
2023-04-13T12:26:31.218Z,25.95
2023-04-13T12:28:57.523Z,26.15
2023-04-13T12:31:36.805Z,26.71
2023-04-13T12:34:07.834Z,26.73
2023-04-13T12:36:36.964Z,26.77
2023-04-13T12:39:06.872Z,27.04
2023-04-13T12:41:35.310Z,26.96
2023-04-13T12:44:03.387Z,27.04
2023-04-13T12:46:32.510Z,27.16
2023-04-13T12:49:00.721Z,27.23
2023-04-13T12:51:29.265Z,27.20
2023-04-13T12:53:57.228Z,27.40
2023-04-13T12:56:25.233Z,27.33
2023-04-13T12:58:56.300Z,27.21
2023-04-13T13:01:24.640Z,27.27
2023-04-13T13:03:54.002Z,27.40
2023-04-13T13:06:22.525Z,27.57
2023-04-13T13:08:51.254Z,27.87
2023-04-13T13:11:19.160Z,27.88
2023-04-13T13:13:48.790Z,27.78
2023-04-13T13:16:17.485Z,27.36
2023-04-13T13:19:00.958Z,26.88
2023-04-13T13:21:29.603Z,26.88
2023-04-13T13:23:57.925Z,27.03
2023-04-13T13:26:30.577Z,27.04
2023-04-13T13:29:09.630Z,27.01
2023-04-13T13:31:40.302Z,26.98
2023-04-13T13:34:11.792Z,26.66
2023-04-13T13:36:39.717Z,27.10
2023-04-13T13:39:10.188Z,27.17
2023-04-13T13:41:38.666Z,27.15
2023-04-13T13:44:08.605Z,27.05
2023-04-13T13:46:37.303Z,27.07
2023-04-13T13:49:07.990Z,26.95
2023-04-13T13:51:57.352Z,26.72
2023-04-13T13:54:27.055Z,26.90
2023-04-13T13:56:54.999Z,27.18
2023-04-13T13:59:22.946Z,27.18
2023-04-13T14:01:51.566Z,27.16
2023-04-13T14:04:20.233Z,27.10
2023-04-13T14:06:53.305Z,26.92
2023-04-13T14:09:21.758Z,26.88
2023-04-13T14:11:50.866Z,26.66
2023-04-13T14:14:22.253Z,26.58
2023-04-13T14:16:53.889Z,26.79
2023-04-13T14:19:22.273Z,26.69
2023-04-13T14:21:53.417Z,26.54
2023-04-13T14:24:26.492Z,26.59
2023-04-13T14:26:56.225Z,26.39
2023-04-13T14:29:24.244Z,26.46
2023-04-13T14:31:52.952Z,26.58
2023-04-13T14:34:20.955Z,26.53
2023-04-13T14:36:51.611Z,26.57
2023-04-13T14:39:25.976Z,26.54
2023-04-13T14:41:55.882Z,26.67
2023-04-13T14:44:24.763Z,26.57
2023-04-13T14:46:53.625Z,26.52
2023-04-13T14:49:21.877Z,26.45
2023-04-13T14:51:50.185Z,26.53
2023-04-13T14:54:22.981Z,26.67
2023-04-13T14:56:51.475Z,26.55
2023-04-13T14:59:19.934Z,26.32
2023-04-13T15:01:50.965Z,26.10
2023-04-13T15:04:19.993Z,25.99
2023-04-13T15:06:49.451Z,25.88
2023-04-13T15:09:18.248Z,25.80
2023-04-13T15:11:46.594Z,25.93
2023-04-13T15:14:18.296Z,25.83
2023-04-13T15:16:46.501Z,25.68
2023-04-13T15:19:14.522Z,25.74
2023-04-13T15:21:46.420Z,25.68
2023-04-13T15:24:15.797Z,25.67
2023-04-13T15:26:43.786Z,25.59
2023-04-13T15:29:12.906Z,25.56
2023-04-13T15:31:41.308Z,25.46
2023-04-13T15:34:09.261Z,25.39
2023-04-13T15:36:37.827Z,25.50
2023-04-13T15:39:06.553Z,25.46
2023-04-13T15:41:34.511Z,25.43
2023-04-13T15:44:03.435Z,25.44
2023-04-13T15:46:32.508Z,25.69
2023-04-13T15:49:01.455Z,25.71
2023-04-13T15:51:32.685Z,25.79
2023-04-13T15:54:00.621Z,25.56
2023-04-13T15:56:29.158Z,25.35
2023-04-13T15:58:57.422Z,25.17
2023-04-13T16:01:26.741Z,25.25
2023-04-13T16:03:56.384Z,25.29
2023-04-13T16:06:24.553Z,25.28
2023-04-13T16:09:02.119Z,25.21
2023-04-13T16:11:32.331Z,25.17
2023-04-13T16:14:07.488Z,25.33
2023-04-13T16:16:47.215Z,24.87
2023-04-13T16:19:18.404Z,24.95
2023-04-13T16:21:47.584Z,24.97
2023-04-13T16:24:17.255Z,24.93
2023-04-13T16:26:46.102Z,24.85
2023-04-13T16:29:14.028Z,24.66
2023-04-13T16:31:44.979Z,24.77
2023-04-13T16:34:25.508Z,24.63
2023-04-13T16:36:54.797Z,24.77
2023-04-13T16:39:24.054Z,24.58
2023-04-13T16:41:52.169Z,24.54
2023-04-13T16:44:20.196Z,24.49
2023-04-13T16:46:50.088Z,24.44
2023-04-13T16:49:18.508Z,24.45
2023-04-13T16:51:48.414Z,24.44
2023-04-13T16:54:17.919Z,24.57
2023-04-13T16:56:48.472Z,24.50
2023-04-13T16:59:16.744Z,24.54
2023-04-13T17:01:47.659Z,24.54
2023-04-13T17:04:18.905Z,24.64
2023-04-13T17:06:47.485Z,24.63
2023-04-13T17:09:15.621Z,24.61
2023-04-13T17:11:45.835Z,24.29
2023-04-13T17:14:14.038Z,24.14
2023-04-13T17:16:46.139Z,24.11
2023-04-13T17:19:15.632Z,24.09
2023-04-13T17:21:43.962Z,24.18
2023-04-13T17:24:13.417Z,23.97
2023-04-13T17:26:42.787Z,23.90
2023-04-13T17:29:10.913Z,24.02
2023-04-13T17:31:38.945Z,24.22
2023-04-13T17:34:07.304Z,24.15
2023-04-13T17:36:35.337Z,24.37
2023-04-13T17:39:05.773Z,24.29
2023-04-13T17:41:35.841Z,24.13
2023-04-13T17:44:03.962Z,24.18
2023-04-13T17:46:31.970Z,24.01
2023-04-13T17:49:03.151Z,24.08
2023-04-13T17:51:32.503Z,23.98
2023-04-13T17:54:01.089Z,24.20
2023-04-13T17:56:31.759Z,24.37
2023-04-13T17:59:00.788Z,24.37
2023-04-13T18:01:29.510Z,24.25
2023-04-13T18:03:59.588Z,24.17
2023-04-13T18:06:28.043Z,24.08
2023-04-13T18:08:56.321Z,24.37
2023-04-13T18:11:24.736Z,24.28
2023-04-13T18:13:54.027Z,24.16
2023-04-13T18:16:22.552Z,24.25
2023-04-13T18:18:51.442Z,24.01
2023-04-13T18:21:19.732Z,24.02
2023-04-13T18:23:48.130Z,23.95
2023-04-13T18:26:16.567Z,23.78
2023-04-13T18:28:44.886Z,23.97
2023-04-13T18:31:13.670Z,24.09
2023-04-13T18:33:42.569Z,23.86
2023-04-13T18:36:14.444Z,23.96
2023-04-13T18:38:44.955Z,24.06
2023-04-13T18:41:13.572Z,23.90
2023-04-13T18:43:41.524Z,23.80
2023-04-13T18:46:09.510Z,23.92
2023-04-13T18:48:38.096Z,24.07
2023-04-13T18:51:09.920Z,24.11
2023-04-13T18:53:39.773Z,24.35
2023-04-13T18:56:07.851Z,24.46
2023-04-13T18:58:37.495Z,24.49
2023-04-13T19:01:17.600Z,24.30
2023-04-13T19:03:46.180Z,23.88
2023-04-13T19:06:22.381Z,23.83
2023-04-13T19:08:51.076Z,23.91
2023-04-13T19:11:20.088Z,23.81
2023-04-13T19:13:48.198Z,24.06
2023-04-13T19:16:23.744Z,23.98
2023-04-13T19:18:53.353Z,23.98
2023-04-13T19:21:24.067Z,23.77
2023-04-13T19:23:54.316Z,23.77
2023-04-13T19:26:25.145Z,23.75
2023-04-13T19:28:55.627Z,23.81
2023-04-13T19:31:25.085Z,23.96
2023-04-13T19:33:53.393Z,23.95
2023-04-13T19:36:21.404Z,24.05
2023-04-13T19:38:51.959Z,24.07
2023-04-13T19:41:19.895Z,24.01
2023-04-13T19:43:47.866Z,24.10
2023-04-13T19:46:16.212Z,24.00
2023-04-13T19:48:44.590Z,24.05
2023-04-13T19:51:12.644Z,24.16
2023-04-13T19:53:42.010Z,24.29
2023-04-13T19:56:10.534Z,24.17
2023-04-13T19:58:38.626Z,24.09
2023-04-13T20:01:10.370Z,24.18
2023-04-13T20:03:40.833Z,24.18
2023-04-13T20:06:09.363Z,24.00
2023-04-13T20:08:37.412Z,23.92
2023-04-13T20:11:08.214Z,24.05
2023-04-13T20:13:38.674Z,23.80
2023-04-13T20:16:07.224Z,23.76
2023-04-13T20:18:35.315Z,23.92
2023-04-13T20:21:03.782Z,23.76
2023-04-13T20:23:31.818Z,23.79
2023-04-13T20:26:04.642Z,23.90
2023-04-13T20:28:33.491Z,23.97
2023-04-13T20:31:01.493Z,24.12
2023-04-13T20:33:31.146Z,23.92
2023-04-13T20:35:59.132Z,23.66
2023-04-13T20:38:29.989Z,23.63
2023-04-13T20:40:59.381Z,24.14
2023-04-13T20:43:27.956Z,24.20
2023-04-13T20:45:59.651Z,24.31
2023-04-13T20:51:01.810Z,24.25
2023-04-13T20:53:30.146Z,24.17
2023-04-13T20:55:58.463Z,24.09
2023-04-13T20:58:28.658Z,24.11
2023-04-13T21:00:57.169Z,23.85
2023-04-13T21:03:30.838Z,23.87
2023-04-13T21:05:59.751Z,23.80
2023-04-13T21:08:27.787Z,23.80
2023-04-13T21:10:55.903Z,23.86
2023-04-13T21:13:24.866Z,23.71
2023-04-13T21:15:52.792Z,23.76
2023-04-13T21:18:22.152Z,23.82
2023-04-13T21:20:51.970Z,23.81
2023-04-13T21:23:20.629Z,24.08
2023-04-13T21:25:50.918Z,24.26
2023-04-13T21:28:21.214Z,24.43
2023-04-13T21:30:49.263Z,24.36
2023-04-13T21:33:21.612Z,24.36
2023-04-13T21:35:49.650Z,24.35
2023-04-13T21:40:48.614Z,19.71
2023-04-13T21:43:17.001Z,20.92
2023-04-13T21:45:46.931Z,21.21
2023-04-13T21:48:14.995Z,21.38
2023-04-13T21:50:43.481Z,21.51
2023-04-13T21:53:11.580Z,21.60
2023-04-13T21:55:41.360Z,21.68
2023-04-13T21:58:09.588Z,21.84
2023-04-13T22:00:37.891Z,22.05
2023-04-13T22:03:06.775Z,22.09
2023-04-13T22:05:35.847Z,22.24
2023-04-13T22:08:04.286Z,22.53
2023-04-13T22:10:34.063Z,22.70
2023-04-13T22:13:02.168Z,22.63
2023-04-13T22:15:31.974Z,22.58
2023-04-13T22:18:00.821Z,22.65
2023-04-13T22:20:30.165Z,22.39
2023-04-13T22:22:58.073Z,22.45
2023-04-13T22:25:28.048Z,22.57
2023-04-13T22:27:56.519Z,22.93
2023-04-13T22:30:27.169Z,22.94
2023-04-13T22:32:59.028Z,22.96
2023-04-13T22:35:27.392Z,22.84
2023-04-13T22:37:59.728Z,22.84
2023-04-13T22:40:28.180Z,22.90
2023-04-13T22:42:56.105Z,22.90
2023-04-13T22:45:26.319Z,22.89
2023-04-13T22:47:54.290Z,22.77
2023-04-13T22:50:22.306Z,22.22
2023-04-13T22:52:54.259Z,22.03
2023-04-13T22:55:22.466Z,22.24
2023-04-13T22:57:50.977Z,21.96
2023-04-13T23:00:20.925Z,22.01
2023-04-13T23:02:56.033Z,22.02
2023-04-13T23:05:24.533Z,22.45
2023-04-13T23:07:52.464Z,22.63
2023-04-13T23:10:21.787Z,22.49
2023-04-13T23:12:49.959Z,22.68
2023-04-13T23:15:17.998Z,22.74
2023-04-13T23:17:47.621Z,22.74
2023-04-13T23:20:15.791Z,22.76
2023-04-13T23:22:43.798Z,22.71
2023-04-13T23:25:12.059Z,22.56
2023-04-13T23:27:40.500Z,22.55
2023-04-13T23:30:08.904Z,22.72
2023-04-13T23:32:39.791Z,22.69
2023-04-13T23:35:08.830Z,22.57
2023-04-13T23:37:36.859Z,22.39
2023-04-13T23:40:05.524Z,22.26
2023-04-13T23:42:37.201Z,22.14
2023-04-13T23:45:06.579Z,22.36
2023-04-13T23:47:35.547Z,22.38
2023-04-13T23:50:03.894Z,22.37
2023-04-13T23:52:33.161Z,22.28
2023-04-13T23:55:01.151Z,22.36
2023-04-13T23:57:34.025Z,22.19
